Time;durP1;ratioP1;P1;durP2;ratioP2;P2;SDS_P1;SDS_P2;PMS_P1;PMS_P2;Temp;Humidity;BMP_temperature;BMP_pressure;BME280_temperature;BME280_humidity;BME280_pressure;Samples;Min_cycle;Max_cycle;Signal;HPM_P1;HPM_P2
2021/09/17 00:01:36;;;;;;;6.20;3.67;;;15.30;75.40;;;;;;5040261;28;20558;-75
2021/09/17 00:04:02;;;;;;;6.43;4.45;;;15.30;75.50;;;;;;5040263;28;20392;-75
2021/09/17 00:06:27;;;;;;;7.40;4.38;;;15.40;75.60;;;;;;5038696;28;20021;-75
2021/09/17 00:08:53;;;;;;;9.00;4.10;;;15.40;75.80;;;;;;5039862;28;20401;-75
2021/09/17 00:11:19;;;;;;;5.55;3.80;;;15.40;76.00;;;;;;5040035;28;20022;-75
2021/09/17 00:13:46;;;;;;;5.70;3.80;;;15.40;75.80;;;;;;5039894;28;20060;-75
2021/09/17 00:16:12;;;;;;;6.60;4.25;;;15.30;75.40;;;;;;5040009;28;20052;-75
2021/09/17 00:18:38;;;;;;;6.45;3.70;;;15.30;75.50;;;;;;5039886;28;20037;-75
2021/09/17 00:21:04;;;;;;;6.50;3.72;;;15.40;75.60;;;;;;5039846;28;20075;-75
2021/09/17 00:23:30;;;;;;;6.78;4.00;;;15.40;75.70;;;;;;5039333;28;20029;-75
2021/09/17 00:25:56;;;;;;;5.90;3.95;;;15.30;75.80;;;;;;5027950;28;20018;-75
2021/09/17 00:28:21;;;;;;;9.02;3.97;;;15.40;75.70;;;;;;5037228;28;20052;-75
2021/09/17 00:30:47;;;;;;;5.72;3.60;;;15.40;75.40;;;;;;5039817;28;20086;-75
2021/09/17 00:33:13;;;;;;;5.13;3.45;;;15.40;75.50;;;;;;5039573;28;20461;-75
2021/09/17 00:35:39;;;;;;;6.95;3.97;;;15.40;75.80;;;;;;5039624;28;20040;-75
2021/09/17 00:38:05;;;;;;;5.43;3.70;;;15.40;75.80;;;;;;5039156;28;20017;-75
2021/09/17 00:40:33;;;;;;;6.78;4.40;;;15.40;75.90;;;;;;5039468;28;20419;-75
2021/09/17 00:42:59;;;;;;;8.05;3.83;;;15.40;76.10;;;;;;5039591;28;20056;-75
2021/09/17 00:45:25;;;;;;;6.68;3.88;;;15.40;76.30;;;;;;5039415;28;20025;-75
2021/09/17 00:47:51;;;;;;;5.55;3.60;;;15.40;76.00;;;;;;5039385;28;20044;-75
2021/09/17 00:50:19;;;;;;;5.88;3.85;;;15.40;76.30;;;;;;5039559;28;20029;-75
2021/09/17 00:52:46;;;;;;;6.47;4.18;;;15.40;76.20;;;;;;5038402;28;20864;-75
2021/09/17 00:55:12;;;;;;;6.70;4.25;;;15.40;76.10;;;;;;5039186;28;20109;-75
2021/09/17 00:57:39;;;;;;;6.15;4.28;;;15.40;76.20;;;;;;5039329;28;20065;-75
2021/09/17 01:00:08;;;;;;;8.00;4.88;;;15.40;76.20;;;;;;5039012;28;20083;-75
2021/09/17 01:02:33;;;;;;;6.03;4.28;;;15.40;76.10;;;;;;5039358;28;20120;-75
2021/09/17 01:04:59;;;;;;;7.65;4.30;;;15.40;76.20;;;;;;5038916;28;20080;-75
2021/09/17 01:07:26;;;;;;;6.70;4.13;;;15.30;76.00;;;;;;5038839;28;20025;-75
2021/09/17 01:09:52;;;;;;;6.93;4.05;;;15.30;75.90;;;;;;5038790;28;20018;-75
2021/09/17 01:12:19;;;;;;;6.72;3.97;;;15.30;76.00;;;;;;5038927;28;20028;-75
2021/09/17 01:14:45;;;;;;;5.82;3.72;;;15.30;76.10;;;;;;5038897;28;20476;-75
2021/09/17 01:17:11;;;;;;;7.00;3.90;;;15.20;75.90;;;;;;5038895;28;20032;-75
2021/09/17 01:19:37;;;;;;;7.32;4.68;;;15.20;75.90;;;;;;5038557;28;20026;-75
2021/09/17 01:22:08;;;;;;;6.68;4.20;;;15.10;76.00;;;;;;5038523;28;20674;-76
2021/09/17 01:24:36;;;;;;;8.07;4.18;;;15.10;76.00;;;;;;5037504;28;20076;-75
2021/09/17 01:27:02;;;;;;;6.40;3.95;;;15.10;76.20;;;;;;5026612;28;20536;-75
2021/09/17 01:29:28;;;;;;;7.00;4.47;;;15.00;76.20;;;;;;5038467;28;20048;-75
2021/09/17 01:31:54;;;;;;;7.07;4.03;;;14.90;76.10;;;;;;5038634;28;20432;-75
2021/09/17 01:34:22;;;;;;;5.93;3.97;;;14.90;76.30;;;;;;5038316;28;20052;-75
2021/09/17 01:36:49;;;;;;;6.22;3.80;;;14.90;76.30;;;;;;5038312;28;20420;-75
2021/09/17 01:39:16;;;;;;;6.43;3.67;;;14.90;76.40;;;;;;5038240;28;20507;-75
2021/09/17 01:41:42;;;;;;;6.25;4.03;;;14.80;76.40;;;;;;5037354;28;20396;-75
2021/09/17 01:44:09;;;;;;;6.60;3.67;;;14.80;76.40;;;;;;5038099;28;20029;-75
2021/09/17 01:46:34;;;;;;;7.45;3.95;;;14.80;76.30;;;;;;5038401;28;20022;-75
2021/09/17 01:49:00;;;;;;;7.07;3.63;;;14.80;76.50;;;;;;5038101;28;20105;-75
2021/09/17 01:51:26;;;;;;;5.95;3.83;;;14.70;76.30;;;;;;5038007;28;20415;-74
2021/09/17 01:53:53;;;;;;;7.60;4.30;;;14.70;76.40;;;;;;5037870;28;20072;-75
2021/09/17 01:56:21;;;;;;;4.97;3.35;;;14.70;76.50;;;;;;5038214;28;20113;-75
2021/09/17 01:58:47;;;;;;;6.72;3.58;;;14.60;76.40;;;;;;5037919;28;20021;-75
2021/09/17 02:01:13;;;;;;;5.53;3.15;;;14.60;76.30;;;;;;5038032;28;20037;-75
2021/09/17 02:03:39;;;;;;;5.25;3.53;;;14.50;76.30;;;;;;5037162;28;20104;-75
2021/09/17 02:06:05;;;;;;;7.65;4.18;;;14.50;76.30;;;;;;5037490;28;20041;-75
2021/09/17 02:08:32;;;;;;;5.28;3.53;;;14.40;76.30;;;;;;5037687;28;20098;-75
2021/09/17 02:10:58;;;;;;;6.65;3.88;;;14.40;76.40;;;;;;5037852;28;20026;-75
2021/09/17 02:13:24;;;;;;;5.50;3.38;;;14.40;76.50;;;;;;5037747;28;20017;-75
2021/09/17 02:15:52;;;;;;;8.45;3.60;;;14.40;76.50;;;;;;5037803;28;20075;-75
2021/09/17 02:18:19;;;;;;;7.43;4.32;;;14.30;76.40;;;;;;5037647;28;20021;-74
2021/09/17 02:20:46;;;;;;;6.55;3.88;;;14.30;76.50;;;;;;5037483;28;20026;-75
2021/09/17 02:23:13;;;;;;;7.75;4.30;;;14.30;76.50;;;;;;5037234;28;20018;-75
2021/09/17 02:25:39;;;;;;;8.27;4.03;;;14.20;76.40;;;;;;5027818;28;20022;-75
2021/09/17 02:28:05;;;;;;;5.95;3.75;;;14.20;76.60;;;;;;5034179;28;20494;-75
2021/09/17 02:30:30;;;;;;;7.45;4.15;;;14.20;76.70;;;;;;5037621;28;20028;-75
2021/09/17 02:32:56;;;;;;;6.65;4.07;;;14.10;76.70;;;;;;5037372;28;20026;-76
2021/09/17 02:35:22;;;;;;;5.47;3.38;;;14.10;76.70;;;;;;5037268;28;20049;-76
2021/09/17 02:37:48;;;;;;;7.05;3.80;;;14.10;76.70;;;;;;5037209;28;20464;-75
2021/09/17 02:40:16;;;;;;;6.28;4.15;;;14.10;76.70;;;;;;5037420;28;20052;-75
2021/09/17 02:42:42;;;;;;;6.93;3.95;;;14.00;76.70;;;;;;5037295;28;20097;-75
2021/09/17 02:45:09;;;;;;;7.10;3.70;;;14.00;76.90;;;;;;5037317;28;20476;-75
2021/09/17 02:47:35;;;;;;;5.95;3.83;;;14.00;76.70;;;;;;5037220;28;20044;-75
2021/09/17 02:50:02;;;;;;;6.53;3.78;;;13.90;76.40;;;;;;5037555;28;20018;-75
2021/09/17 02:52:28;;;;;;;7.97;5.07;;;13.90;76.60;;;;;;5036801;28;20036;-75
2021/09/17 02:54:54;;;;;;;9.18;4.30;;;13.90;77.10;;;;;;5037197;28;20021;-76
2021/09/17 02:57:20;;;;;;;6.85;4.30;;;13.90;77.10;;;;;;5037124;28;20029;-75
2021/09/17 02:59:46;;;;;;;8.05;4.75;;;13.90;77.00;;;;;;5035877;28;20054;-75
2021/09/17 03:02:13;;;;;;;7.75;4.45;;;13.90;76.90;;;;;;5037112;28;20033;-75
2021/09/17 03:04:38;;;;;;;6.55;4.03;;;13.90;77.00;;;;;;5037154;28;20060;-75
2021/09/17 03:07:04;;;;;;;7.70;3.75;;;13.90;77.00;;;;;;5036829;28;20029;-75
2021/09/17 03:09:30;;;;;;;7.43;3.92;;;13.90;77.10;;;;;;5037053;28;20408;-75
2021/09/17 03:11:56;;;;;;;8.02;3.83;;;13.80;77.20;;;;;;5036996;28;20097;-75
2021/09/17 03:14:22;;;;;;;7.53;3.63;;;13.80;77.60;;;;;;5037127;28;20028;-75
2021/09/17 03:16:49;;;;;;;6.72;3.80;;;13.80;77.00;;;;;;5040053;28;20503;-75
2021/09/17 03:19:15;;;;;;;6.93;3.42;;;13.70;77.00;;;;;;5041049;28;21094;-75
2021/09/17 03:21:41;;;;;;;7.22;4.03;;;13.70;77.30;;;;;;5040388;28;20171;-75
2021/09/17 03:24:07;;;;;;;5.97;3.33;;;13.70;77.50;;;;;;5040715;28;20057;-75
2021/09/17 03:26:33;;;;;;;9.38;3.70;;;13.70;77.40;;;;;;5027534;28;20435;-76
2021/09/17 03:29:00;;;;;;;7.88;4.32;;;13.80;77.40;;;;;;5041077;28;20017;-76
2021/09/17 03:31:26;;;;;;;8.77;4.68;;;13.80;77.50;;;;;;5040683;28;20565;-76
2021/09/17 03:33:52;;;;;;;9.88;4.88;;;13.80;77.60;;;;;;5040451;28;20068;-76
2021/09/17 03:36:18;;;;;;;10.02;5.00;;;13.80;77.70;;;;;;5040379;28;20030;-76
2021/09/17 03:38:44;;;;;;;9.85;5.00;;;13.80;77.60;;;;;;5040569;28;20022;-76
2021/09/17 03:41:09;;;;;;;10.68;5.32;;;13.90;77.70;;;;;;5040533;28;20032;-76
2021/09/17 03:43:35;;;;;;;9.70;5.50;;;13.80;77.80;;;;;;5040394;28;20029;-76
2021/09/17 03:46:01;;;;;;;9.38;5.00;;;13.90;77.90;;;;;;5039122;28;20062;-76
2021/09/17 03:48:28;;;;;;;9.38;5.45;;;13.80;78.00;;;;;;5040399;28;20492;-76
2021/09/17 03:50:53;;;;;;;10.40;5.32;;;13.90;78.20;;;;;;5040300;28;20538;-76
2021/09/17 03:53:19;;;;;;;8.00;5.18;;;13.90;78.20;;;;;;5040109;28;20017;-76
2021/09/17 03:55:45;;;;;;;7.93;5.03;;;13.90;78.30;;;;;;5040159;28;20085;-76
2021/09/17 03:58:12;;;;;;;8.38;4.90;;;13.90;78.10;;;;;;5040227;28;20545;-76
2021/09/17 04:00:38;;;;;;;7.78;5.03;;;13.90;78.30;;;;;;5040125;28;20114;-76
2021/09/17 04:03:04;;;;;;;7.53;5.10;;;13.80;78.20;;;;;;5040234;28;20496;-76
2021/09/17 04:05:33;;;;;;;6.97;4.28;;;13.80;78.20;;;;;;5039908;28;20029;-76
2021/09/17 04:07:59;;;;;;;7.40;4.35;;;13.80;78.00;;;;;;5039926;28;20033;-76
2021/09/17 04:10:26;;;;;;;6.53;4.10;;;13.80;78.40;;;;;;5039846;28;20021;-77
2021/09/17 04:12:52;;;;;;;7.82;4.72;;;13.80;78.30;;;;;;5040123;28;20033;-76
2021/09/17 04:15:18;;;;;;;8.52;4.90;;;13.90;78.30;;;;;;5039831;28;20083;-76
2021/09/17 04:17:44;;;;;;;9.90;4.72;;;13.90;78.10;;;;;;5040116;28;20025;-76
2021/09/17 04:20:11;;;;;;;10.15;4.78;;;13.90;78.00;;;;;;5026642;28;20026;-76
2021/09/17 04:22:37;;;;;;;8.95;5.32;;;13.90;77.90;;;;;;5039499;28;20078;-76
2021/09/17 04:25:05;;;;;;;7.68;4.97;;;14.00;78.00;;;;;;5033445;28;20022;-77
2021/09/17 04:27:31;;;;;;;7.53;4.57;;;13.90;77.90;;;;;;5029216;28;20123;-77
2021/09/17 04:29:56;;;;;;;6.60;4.28;;;13.90;77.90;;;;;;5021866;28;20025;-77
2021/09/17 04:32:22;;;;;;;6.30;4.05;;;13.90;78.20;;;;;;5039571;28;20032;-76
2021/09/17 04:34:48;;;;;;;6.35;4.22;;;13.90;78.00;;;;;;5039455;28;20042;-76
2021/09/17 04:37:14;;;;;;;6.82;3.80;;;13.90;78.10;;;;;;5039352;28;20025;-74
2021/09/17 04:39:41;;;;;;;5.95;4.10;;;13.90;78.00;;;;;;5039122;28;20054;-75
2021/09/17 04:42:07;;;;;;;6.40;4.15;;;13.80;78.10;;;;;;5039446;28;20083;-76
2021/09/17 04:44:33;;;;;;;5.90;3.97;;;13.80;78.30;;;;;;5039152;28;20035;-77
2021/09/17 04:46:59;;;;;;;5.63;3.33;;;13.80;78.40;;;;;;5038091;28;20021;-85
2021/09/17 04:49:25;;;;;;;5.30;3.50;;;13.80;78.20;;;;;;5039206;28;20104;-76
2021/09/17 04:51:51;;;;;;;4.50;3.15;;;13.80;78.50;;;;;;5039057;28;20053;-78
2021/09/17 04:54:17;;;;;;;4.32;3.20;;;13.70;78.50;;;;;;5038930;28;20063;-76
2021/09/17 04:56:43;;;;;;;4.75;3.13;;;13.70;78.40;;;;;;5039378;28;20539;-76
2021/09/17 04:59:10;;;;;;;4.88;3.20;;;13.70;78.40;;;;;;5038984;28;20029;-77
2021/09/17 05:01:36;;;;;;;5.47;3.60;;;13.70;78.40;;;;;;5038991;28;20099;-76
2021/09/17 05:04:02;;;;;;;9.27;4.40;;;13.70;78.30;;;;;;5038914;28;20487;-77
2021/09/17 05:06:30;;;;;;;7.35;3.92;;;13.70;78.20;;;;;;5038894;28;20025;-77
2021/09/17 05:08:57;;;;;;;7.95;4.53;;;13.70;78.00;;;;;;5037661;28;20029;-75
2021/09/17 05:11:23;;;;;;;5.25;3.78;;;13.70;78.10;;;;;;5037261;28;20468;-78
2021/09/17 05:13:49;;;;;;;5.35;3.40;;;13.70;78.10;;;;;;5038906;28;20052;-75
2021/09/17 05:16:15;;;;;;;4.60;2.90;;;13.70;78.30;;;;;;5038887;28;20488;-78
2021/09/17 05:18:43;;;;;;;4.97;3.35;;;13.70;78.20;;;;;;5037655;28;20025;-75
2021/09/17 05:21:09;;;;;;;4.55;2.80;;;13.70;78.40;;;;;;5038280;28;20087;-75
2021/09/17 05:23:35;;;;;;;4.55;3.00;;;13.70;78.40;;;;;;5038461;28;20460;-75
2021/09/17 05:26:02;;;;;;;4.97;2.92;;;13.70;78.50;;;;;;5026032;28;20148;-76
2021/09/17 05:28:29;;;;;;;4.38;2.97;;;13.60;78.60;;;;;;5038186;28;20551;-75
2021/09/17 05:30:55;;;;;;;4.18;2.88;;;13.60;78.60;;;;;;5038802;28;20056;-75
2021/09/17 05:33:21;;;;;;;5.03;3.40;;;13.60;78.80;;;;;;5038190;28;20033;-76
2021/09/17 05:35:47;;;;;;;5.07;3.13;;;13.60;78.90;;;;;;5038492;28;20026;-76
2021/09/17 05:38:12;;;;;;;5.38;3.40;;;13.50;78.60;;;;;;5037846;28;20606;-76
2021/09/17 05:40:38;;;;;;;5.55;3.50;;;13.50;79.20;;;;;;5038465;28;20064;-76
2021/09/17 05:43:04;;;;;;;4.70;3.15;;;13.50;78.90;;;;;;5038273;28;20050;-75
2021/09/17 05:45:31;;;;;;;4.72;3.33;;;13.50;78.70;;;;;;5038455;28;20128;-75
2021/09/17 05:47:56;;;;;;;4.80;3.38;;;13.50;78.60;;;;;;5038185;28;20072;-75
2021/09/17 05:50:22;;;;;;;5.32;3.92;;;13.40;78.80;;;;;;5038101;28;20022;-76
2021/09/17 05:52:48;;;;;;;5.25;3.42;;;13.40;78.60;;;;;;5024751;28;20022;-76
2021/09/17 05:55:14;;;;;;;4.45;3.20;;;13.40;78.90;;;;;;5036703;28;20121;-75
2021/09/17 05:57:40;;;;;;;4.70;3.10;;;13.40;78.80;;;;;;5037986;28;20053;-75
2021/09/17 06:00:08;;;;;;;6.60;3.50;;;13.40;79.00;;;;;;5037749;28;20036;-75
2021/09/17 06:02:34;;;;;;;5.38;3.53;;;13.40;78.80;;;;;;5038098;28;20028;-76
2021/09/17 06:05:00;;;;;;;6.18;4.00;;;13.40;78.80;;;;;;5036087;28;20026;-75
2021/09/17 06:07:26;;;;;;;6.28;4.05;;;13.40;79.30;;;;;;5037406;28;20510;-75
2021/09/17 06:09:51;;;;;;;8.32;4.68;;;13.40;79.10;;;;;;5037751;28;20472;-75
2021/09/17 06:12:17;;;;;;;6.10;4.28;;;13.40;79.10;;;;;;5037892;28;20022;-75
2021/09/17 06:14:43;;;;;;;10.88;4.18;;;13.40;79.20;;;;;;5037921;28;20057;-75
2021/09/17 06:17:09;;;;;;;7.18;4.50;;;13.40;79.80;;;;;;5037941;28;20496;-75
2021/09/17 06:19:35;;;;;;;6.47;4.47;;;13.40;79.40;;;;;;5037722;28;20476;-75
2021/09/17 06:22:00;;;;;;;5.72;4.03;;;13.40;79.70;;;;;;5037437;28;20060;-75
2021/09/17 06:24:26;;;;;;;5.63;3.70;;;13.40;79.30;;;;;;5037531;28;20033;-76
2021/09/17 06:26:52;;;;;;;6.43;3.90;;;13.50;79.50;;;;;;5024319;28;20076;-75
2021/09/17 06:29:18;;;;;;;5.18;3.70;;;13.50;79.40;;;;;;5037614;28;20052;-75
2021/09/17 06:31:43;;;;;;;6.30;3.95;;;13.50;79.30;;;;;;5037573;28;20383;-75
2021/09/17 06:34:09;;;;;;;6.55;4.13;;;13.50;79.30;;;;;;5037228;28;20053;-75
2021/09/17 06:36:35;;;;;;;6.72;4.20;;;13.60;79.80;;;;;;5037391;28;20057;-75
2021/09/17 06:39:01;;;;;;;8.20;4.30;;;13.60;79.70;;;;;;5037439;28;20040;-75
2021/09/17 06:41:29;;;;;;;6.57;4.22;;;13.60;79.50;;;;;;5037488;28;20032;-76
2021/09/17 06:43:55;;;;;;;6.68;4.10;;;13.70;79.90;;;;;;5037233;28;20021;-75
2021/09/17 06:46:21;;;;;;;5.78;3.42;;;13.70;79.50;;;;;;5037690;28;20044;-75
2021/09/17 06:48:46;;;;;;;6.75;4.07;;;13.70;79.40;;;;;;5037424;28;20472;-75
2021/09/17 06:51:12;;;;;;;7.70;4.60;;;13.80;79.70;;;;;;5036742;28;20026;-75
2021/09/17 06:53:38;;;;;;;6.50;4.10;;;13.80;79.60;;;;;;5037084;28;20017;-75
2021/09/17 06:56:04;;;;;;;6.68;4.20;;;13.90;79.80;;;;;;5037511;28;20017;-75
2021/09/17 06:58:33;;;;;;;5.90;3.92;;;13.90;79.40;;;;;;5037128;28;20029;-75
2021/09/17 07:00:59;;;;;;;6.82;4.18;;;14.00;79.30;;;;;;5037408;28;20026;-75
2021/09/17 07:03:26;;;;;;;7.22;4.95;;;14.00;79.10;;;;;;5037004;28;20028;-76
2021/09/17 07:05:53;;;;;;;7.25;4.57;;;14.10;79.30;;;;;;5036989;28;20097;-76
2021/09/17 07:08:19;;;;;;;7.25;4.90;;;14.20;79.40;;;;;;5036984;28;20108;-76
2021/09/17 07:10:46;;;;;;;8.88;5.40;;;14.20;79.60;;;;;;5037063;28;20028;-75
2021/09/17 07:13:12;;;;;;;8.07;5.30;;;14.40;79.70;;;;;;5036996;28;20358;-76
2021/09/17 07:15:39;;;;;;;7.45;4.80;;;14.40;79.80;;;;;;5037272;28;20047;-76
2021/09/17 07:18:06;;;;;;;8.73;5.25;;;14.50;79.70;;;;;;5037005;28;20064;-75
2021/09/17 07:20:33;;;;;;;9.07;5.55;;;14.60;79.60;;;;;;5037218;28;20030;-76
2021/09/17 07:22:59;;;;;;;6.80;4.78;;;14.60;79.50;;;;;;5036746;28;20026;-75
2021/09/17 07:25:25;;;;;;;7.43;5.47;;;14.70;79.40;;;;;;5029158;28;20033;-75
2021/09/17 07:27:51;;;;;;;7.65;5.28;;;14.80;79.40;;;;;;5031662;28;20044;-75
2021/09/17 07:30:19;;;;;;;9.23;5.57;;;14.90;79.30;;;;;;5037387;28;20014;-76
2021/09/17 07:32:45;;;;;;;7.80;5.28;;;14.90;79.20;;;;;;5036793;28;20018;-76
2021/09/17 07:35:11;;;;;;;9.52;6.40;;;14.90;79.30;;;;;;5036873;28;20052;-75
2021/09/17 07:37:37;;;;;;;8.68;5.75;;;14.90;79.30;;;;;;5035236;28;20033;-75
2021/09/17 07:40:04;;;;;;;7.95;5.38;;;15.00;79.30;;;;;;5037114;28;20048;-75
2021/09/17 07:42:30;;;;;;;8.77;5.60;;;15.00;79.30;;;;;;5035380;28;20034;-75
2021/09/17 07:44:56;;;;;;;8.13;5.35;;;15.10;79.20;;;;;;5037009;28;20021;-75
2021/09/17 07:47:22;;;;;;;8.50;5.82;;;15.10;79.10;;;;;;5036752;28;20036;-75
2021/09/17 07:49:48;;;;;;;7.68;5.30;;;15.10;79.10;;;;;;5035582;28;20132;-75
2021/09/17 07:52:14;;;;;;;10.00;6.30;;;15.10;79.20;;;;;;5036415;28;20035;-75
2021/09/17 07:54:40;;;;;;;10.38;6.78;;;15.10;79.30;;;;;;5036747;28;20037;-75
2021/09/17 07:57:06;;;;;;;12.07;6.53;;;15.20;79.50;;;;;;5036616;28;20883;-75
2021/09/17 07:59:32;;;;;;;9.77;6.32;;;15.20;79.60;;;;;;5036700;28;20026;-76
2021/09/17 08:01:58;;;;;;;10.63;6.30;;;15.30;79.70;;;;;;5036551;28;20026;-75
2021/09/17 08:04:24;;;;;;;11.15;6.50;;;15.40;79.70;;;;;;5040302;28;20033;-75
2021/09/17 08:06:49;;;;;;;10.18;7.13;;;15.50;79.90;;;;;;5040070;28;20029;-75
2021/09/17 08:09:15;;;;;;;11.60;7.68;;;15.70;80.00;;;;;;5040001;28;20036;-75
2021/09/17 08:11:43;;;;;;;11.55;8.02;;;15.80;80.00;;;;;;5040019;28;20055;-75
2021/09/17 08:14:09;;;;;;;12.13;8.15;;;15.90;80.00;;;;;;5040522;28;20112;-75
2021/09/17 08:16:35;;;;;;;11.55;7.90;;;16.00;80.10;;;;;;5039899;28;20061;-75
2021/09/17 08:19:01;;;;;;;13.40;7.88;;;16.20;80.10;;;;;;5040152;28;20030;-76
2021/09/17 08:21:26;;;;;;;10.75;7.75;;;16.30;80.10;;;;;;5039430;28;20025;-76
2021/09/17 08:23:52;;;;;;;10.55;7.72;;;16.40;80.10;;;;;;5038357;28;20049;-76
2021/09/17 08:26:18;;;;;;;12.75;7.90;;;16.50;79.90;;;;;;5026607;28;20037;-75
2021/09/17 08:28:44;;;;;;;12.18;8.18;;;16.60;79.80;;;;;;5039882;28;20025;-76
2021/09/17 08:31:10;;;;;;;12.05;7.50;;;16.70;79.80;;;;;;5039655;28;20036;-75
2021/09/17 08:33:36;;;;;;;11.27;8.25;;;16.80;79.90;;;;;;5039384;28;20042;-75
2021/09/17 08:36:03;;;;;;;12.07;7.00;;;16.90;79.90;;;;;;5039344;28;20057;-75
2021/09/17 08:38:29;;;;;;;11.63;8.40;;;17.00;79.80;;;;;;5039683;28;20014;-75
2021/09/17 08:40:57;;;;;;;12.25;7.60;;;17.10;79.70;;;;;;5039562;28;20017;-75
2021/09/17 08:43:23;;;;;;;10.50;7.75;;;17.30;80.10;;;;;;5039492;28;20116;-75
2021/09/17 08:45:50;;;;;;;9.98;6.38;;;17.50;80.20;;;;;;5039241;28;20021;-75
2021/09/17 08:48:16;;;;;;;8.73;6.47;;;17.80;80.40;;;;;;5039650;28;20049;-75
2021/09/17 08:50:46;;;;;;;10.35;6.03;;;18.10;80.10;;;;;;5038911;28;20026;-75
2021/09/17 08:53:15;;;;;;;9.43;6.60;;;18.30;79.60;;;;;;5039497;28;20025;-75
2021/09/17 08:55:41;;;;;;;9.25;6.95;;;18.60;80.30;;;;;;5039209;28;20059;-75
2021/09/17 08:58:07;;;;;;;8.73;5.97;;;19.00;80.40;;;;;;5039210;28;20026;-75
2021/09/17 09:00:32;;;;;;;8.75;6.40;;;19.80;81.30;;;;;;5039217;28;20025;-75
2021/09/17 09:02:59;;;;;;;7.57;5.43;;;20.80;80.90;;;;;;5037808;28;20025;-76
2021/09/17 09:05:33;;;;;;;6.85;4.80;;;21.90;79.50;;;;;;5038903;28;20449;-76
2021/09/17 09:08:04;;;;;;;6.10;4.05;;;23.00;78.30;;;;;;5038872;28;20022;-74
2021/09/17 09:10:30;;;;;;;5.50;4.10;;;23.90;77.20;;;;;;5026519;28;20104;-74
2021/09/17 09:12:58;;;;;;;5.03;3.65;;;24.90;75.90;;;;;;5038645;28;20113;-76
2021/09/17 09:15:26;;;;;;;6.32;3.28;;;25.60;74.30;;;;;;5038952;28;20057;-75
2021/09/17 09:17:57;;;;;;;4.47;3.33;;;26.30;73.50;;;;;;5038830;28;20021;-74
2021/09/17 09:20:40;;;;;;;4.50;3.10;;;26.80;72.20;;;;;;5038764;28;20100;-76
2021/09/17 09:23:22;;;;;;;5.63;3.05;;;27.30;70.90;;;;;;5038605;28;20026;-75
2021/09/17 09:25:54;;;;;;;4.88;2.92;;;27.90;69.70;;;;;;5027481;28;20029;-74
2021/09/17 09:28:32;;;;;;;6.70;3.47;;;28.30;68.80;;;;;;5037240;28;20028;-74
2021/09/17 09:31:12;;;;;;;4.40;2.58;;;28.70;67.60;;;;;;5038632;28;20028;-75
2021/09/17 09:33:43;;;;;;;4.57;2.60;;;29.00;66.60;;;;;;5038319;28;20459;-75
2021/09/17 09:36:16;;;;;;;4.80;2.97;;;29.20;65.00;;;;;;5038130;28;20025;-76
2021/09/17 09:38:55;;;;;;;4.82;2.65;;;29.40;63.60;;;;;;5038398;28;20084;-77
2021/09/17 09:41:32;;;;;;;4.28;2.10;;;29.60;63.10;;;;;;5038235;28;20072;-76
2021/09/17 09:43:59;;;;;;;4.72;2.40;;;29.90;62.40;;;;;;5038253;28;20056;-76
2021/09/17 09:46:35;;;;;;;3.60;2.20;;;30.20;61.80;;;;;;5038441;28;20032;-75
2021/09/17 09:49:06;;;;;;;4.10;2.05;;;30.50;60.80;;;;;;5038230;28;20126;-75
2021/09/17 09:51:39;;;;;;;5.13;1.88;;;30.80;60.80;;;;;;5038200;28;20026;-77
2021/09/17 09:54:07;;;;;;;3.83;1.92;;;31.00;61.10;;;;;;5037902;28;20024;-76
2021/09/17 09:56:35;;;;;;;3.45;1.60;;;31.30;60.00;;;;;;5038331;28;20089;-75
2021/09/17 09:59:08;;;;;;;2.60;1.33;;;31.60;58.10;;;;;;5037941;28;20492;-75
2021/09/17 10:01:36;;;;;;;3.10;1.35;;;31.80;57.60;;;;;;5037984;28;20519;-76
2021/09/17 10:04:03;;;;;;;1.88;0.90;;;32.00;58.00;;;;;;5038069;28;20027;-75
2021/09/17 10:06:33;;;;;;;4.30;1.00;;;32.30;55.60;;;;;;5037844;28;20033;-75
2021/09/17 10:08:59;;;;;;;2.13;0.75;;;32.60;52.90;;;;;;5037930;28;20018;-75
2021/09/17 10:11:25;;;;;;;2.85;0.90;;;32.80;54.20;;;;;;5037838;28;20567;-75
2021/09/17 10:13:55;;;;;;;3.20;1.05;;;33.00;54.00;;;;;;5037882;28;20104;-76
2021/09/17 10:16:23;;;;;;;1.77;0.70;;;33.20;53.30;;;;;;5037892;28;20061;-75
2021/09/17 10:18:49;;;;;;;1.38;0.50;;;33.20;53.60;;;;;;5037857;28;20033;-75
2021/09/17 10:21:48;;;;;;;1.20;0.52;;;33.50;50.20;;;;;;5035965;28;20033;-75
2021/09/17 10:24:26;;;;;;;1.65;0.60;;;33.60;48.40;;;;;;5035962;28;20484;-75
2021/09/17 10:27:23;;;;;;;1.58;0.70;;;33.70;49.80;;;;;;5023851;28;20395;-75
2021/09/17 10:29:54;;;;;;;2.30;0.60;;;33.90;46.50;;;;;;5036331;28;20520;-75
2021/09/17 10:32:47;;;;;;;1.38;0.60;;;34.00;46.30;;;;;;5037553;28;20026;-76
2021/09/17 10:35:18;;;;;;;1.25;0.57;;;34.00;45.70;;;;;;5025763;28;20441;-76
2021/09/17 10:37:55;;;;;;;1.55;0.60;;;34.20;46.70;;;;;;5037398;28;20044;-76
2021/09/17 10:40:58;;;;;;;1.48;0.70;;;34.40;47.00;;;;;;5037505;28;20488;-76
2021/09/17 10:43:37;;;;;;;1.48;0.70;;;34.60;47.90;;;;;;5026604;28;20029;-75
2021/09/17 10:46:19;;;;;;;2.05;0.68;;;34.80;43.70;;;;;;5037281;28;20404;-75
2021/09/17 10:48:44;;;;;;;2.97;0.75;;;34.80;44.70;;;;;;5037496;28;20022;-75
2021/09/17 10:51:37;;;;;;;2.35;0.70;;;34.80;45.10;;;;;;5037153;28;20048;-75
2021/09/17 10:54:13;;;;;;;2.42;0.93;;;34.90;44.40;;;;;;5037223;28;20072;-75
2021/09/17 10:56:48;;;;;;;2.15;0.75;;;35.10;41.90;;;;;;5036111;28;20022;-75
2021/09/17 10:59:21;;;;;;;1.77;0.68;;;35.00;42.40;;;;;;5037140;28;20028;-75
2021/09/17 11:01:53;;;;;;;2.88;0.75;;;34.80;42.30;;;;;;5037362;28;20039;-75
2021/09/17 11:04:30;;;;;;;3.75;0.90;;;34.50;43.40;;;;;;5037446;28;20041;-76
2021/09/17 11:07:16;;;;;;;1.95;0.80;;;34.30;42.60;;;;;;5036958;28;20025;-74
2021/09/17 11:09:45;;;;;;;1.35;0.65;;;34.30;42.70;;;;;;5037010;28;20032;-73
2021/09/17 11:12:26;;;;;;;1.50;0.50;;;34.30;43.10;;;;;;5037249;28;20029;-74
2021/09/17 11:15:02;;;;;;;2.77;0.70;;;34.40;43.10;;;;;;5036997;28;20147;-74
2021/09/17 11:17:56;;;;;;;2.45;1.00;;;34.40;42.10;;;;;;5037349;28;20076;-74
2021/09/17 11:20:25;;;;;;;1.90;0.70;;;34.30;42.20;;;;;;5024420;28;20128;-74
2021/09/17 11:23:00;;;;;;;2.60;0.63;;;34.20;42.10;;;;;;5036640;28;20026;-75
2021/09/17 11:25:33;;;;;;;2.42;0.80;;;34.20;41.70;;;;;;5027876;28;20030;-74
2021/09/17 11:27:59;;;;;;;1.67;0.52;;;34.30;42.10;;;;;;5032901;28;20024;-73
2021/09/17 11:30:27;;;;;;;2.15;0.70;;;34.50;42.90;;;;;;5037189;28;20104;-74
2021/09/17 11:32:54;;;;;;;1.85;0.75;;;34.60;42.10;;;;;;5036795;28;20017;-74
2021/09/17 11:35:20;;;;;;;2.83;0.70;;;34.60;42.80;;;;;;5036776;28;20053;-74
2021/09/17 11:37:57;;;;;;;2.00;0.85;;;34.80;42.90;;;;;;5039613;28;21711;-73
2021/09/17 11:40:27;;;;;;;2.15;0.70;;;34.80;41.80;;;;;;5040560;28;20060;-73
2021/09/17 11:42:54;;;;;;;2.50;0.90;;;34.70;40.70;;;;;;5040364;28;20057;-73
2021/09/17 11:45:23;;;;;;;3.92;2.20;;;34.60;41.00;;;;;;5040532;28;20048;-74
2021/09/17 11:47:52;;;;;;;3.67;2.10;;;34.40;39.90;;;;;;5039704;28;20113;-73
2021/09/17 11:50:20;;;;;;;2.75;0.80;;;34.40;40.80;;;;;;5039776;28;20457;-73
2021/09/17 11:52:48;;;;;;;1.63;0.63;;;34.10;40.50;;;;;;5033113;28;20049;-74
2021/09/17 11:55:26;;;;;;;2.58;0.80;;;33.70;41.00;;;;;;5038690;28;20085;-75
2021/09/17 11:57:54;;;;;;;1.45;0.60;;;33.50;40.30;;;;;;5039513;28;20026;-75
2021/09/17 12:00:23;;;;;;;2.15;0.80;;;32.90;41.00;;;;;;5039496;28;20036;-74
2021/09/17 12:03:01;;;;;;;2.00;0.88;;;32.70;42.30;;;;;;5039334;28;20032;-73
2021/09/17 12:05:28;;;;;;;2.33;1.10;;;32.60;43.20;;;;;;5039329;28;20021;-74
2021/09/17 12:07:55;;;;;;;2.22;0.93;;;32.70;43.40;;;;;;5039434;28;20032;-73
2021/09/17 12:10:25;;;;;;;2.40;0.90;;;32.90;42.90;;;;;;5039354;28;20408;-73
2021/09/17 12:12:59;;;;;;;2.15;0.73;;;32.90;43.20;;;;;;5035020;28;20018;-73
2021/09/17 12:15:31;;;;;;;2.83;0.90;;;32.60;41.10;;;;;;5035113;28;20469;-74
2021/09/17 12:18:06;;;;;;;1.40;0.60;;;32.50;42.50;;;;;;5037203;28;20033;-75
2021/09/17 12:20:59;;;;;;;1.88;0.85;;;32.50;43.10;;;;;;5038976;28;20033;-74
2021/09/17 12:23:31;;;;;;;1.70;0.82;;;32.20;42.10;;;;;;5026787;28;20065;-74
2021/09/17 12:26:10;;;;;;;1.25;0.70;;;32.00;42.00;;;;;;5027379;28;20037;-74
2021/09/17 12:28:36;;;;;;;3.80;0.93;;;31.90;43.10;;;;;;5027479;28;20032;-74
2021/09/17 12:31:04;;;;;;;2.67;1.00;;;31.90;43.50;;;;;;5039421;28;20543;-75
2021/09/17 12:33:33;;;;;;;1.75;0.80;;;31.90;43.80;;;;;;5039273;28;20097;-74
2021/09/17 12:36:11;;;;;;;2.00;0.90;;;31.70;43.90;;;;;;5039013;28;20037;-74
2021/09/17 12:38:38;;;;;;;2.40;0.93;;;31.50;43.80;;;;;;5039613;28;20017;-74
2021/09/17 12:41:10;;;;;;;2.70;1.02;;;31.40;44.90;;;;;;5039243;28;20026;-74
2021/09/17 12:43:37;;;;;;;1.98;0.98;;;31.30;44.70;;;;;;5039225;28;20014;-74
2021/09/17 12:46:12;;;;;;;3.00;1.00;;;31.20;44.20;;;;;;5039123;28;20400;-74
2021/09/17 12:48:47;;;;;;;1.95;0.80;;;31.10;44.30;;;;;;5038538;28;20029;-74
2021/09/17 12:51:27;;;;;;;4.65;0.93;;;31.20;44.90;;;;;;5038914;28;20029;-74